Time;durP1;ratioP1;P1;durP2;ratioP2;P2;SDS_P1;SDS_P2;PMS_P1;PMS_P2;Temp;Humidity;BMP_temperature;BMP_pressure;BME280_temperature;BME280_humidity;BME280_pressure;Samples;Min_cycle;Max_cycle;Signal;HPM_P1;HPM_P2
2022/10/31 00:00:23;;;;;;;;;;;11.10;99.90;;;;;;4989335;28;20394;-73
2022/10/31 00:02:48;;;;;;;13.93;8.38;;;11.20;99.90;;;;;;4990405;28;20385;-72
2022/10/31 00:05:14;;;;;;;;;;;11.20;99.90;;;;;;4991755;28;20047;-73
2022/10/31 00:07:40;;;;;;;11.35;7.50;;;11.20;99.90;;;;;;4993574;28;19925;-72
2022/10/31 00:10:06;;;;;;;12.63;7.63;;;11.10;99.90;;;;;;4990790;28;20034;-73
2022/10/31 00:12:32;;;;;;;13.63;7.75;;;11.10;99.90;;;;;;4991770;28;20081;-73
2022/10/31 00:14:57;;;;;;;;;;;11.10;99.90;;;;;;4992868;28;20387;-74
2022/10/31 00:17:23;;;;;;;11.95;7.75;;;11.10;99.90;;;;;;4995656;28;19917;-72
2022/10/31 00:19:51;;;;;;;13.65;8.05;;;11.10;99.90;;;;;;5015635;28;20041;-73
2022/10/31 00:22:20;;;;;;;14.32;8.38;;;11.10;99.90;;;;;;4992261;28;20050;-72
2022/10/31 00:24:45;;;;;;;;;;;11.10;99.90;;;;;;4990970;28;20042;-72
2022/10/31 00:27:11;;;;;;;15.32;8.35;;;11.20;99.90;;;;;;4991117;28;20392;-72
2022/10/31 00:29:36;;;;;;;;;;;11.10;99.90;;;;;;4992722;28;20046;-72
2022/10/31 00:32:02;;;;;;;15.75;8.85;;;11.40;99.90;;;;;;4991196;28;19922;-72
2022/10/31 00:34:27;;;;;;;;;;;11.20;99.90;;;;;;4992209;28;20119;-73
2022/10/31 00:36:53;;;;;;;16.38;8.70;;;11.20;99.90;;;;;;4990571;28;19944;-73
2022/10/31 00:39:19;;;;;;;14.27;8.68;;;11.70;99.90;;;;;;4992742;28;20061;-72
2022/10/31 00:41:44;;;;;;;;;;;11.30;99.90;;;;;;4994322;28;20042;-73
2022/10/31 00:44:10;;;;;;;16.75;8.68;;;11.50;99.90;;;;;;4990880;28;19975;-72
2022/10/31 00:46:35;;;;;;;;;;;11.30;99.90;;;;;;4991519;28;20490;-72
2022/10/31 00:49:01;;;;;;;15.60;8.48;;;11.30;99.90;;;;;;4988179;28;19926;-72
2022/10/31 00:51:26;;;;;;;19.48;8.95;;;11.40;99.90;;;;;;4990144;28;20046;-73
2022/10/31 00:53:52;;;;;;;;;;;11.30;99.90;;;;;;4990239;28;20050;-73
2022/10/31 00:56:17;;;;;;;17.73;8.50;;;11.40;99.90;;;;;;4991485;28;19922;-72
2022/10/31 00:58:43;;;;;;;;;;;11.40;99.90;;;;;;4992164;28;20474;-72
2022/10/31 01:01:09;;;;;;;15.85;8.18;;;11.40;99.90;;;;;;4993897;28;19929;-73
2022/10/31 01:03:35;;;;;;;13.48;7.88;;;11.30;99.90;;;;;;4996254;28;20083;-73
2022/10/31 01:06:04;;;;;;;14.73;8.07;;;11.40;99.90;;;;;;4990622;28;20117;-72
2022/10/31 01:08:29;;;;;;;15.45;7.70;;;11.30;99.90;;;;;;4991927;28;20117;-72
2022/10/31 01:11:02;;;;;;;;;;;11.40;99.90;;;;;;4990572;28;20518;-73
2022/10/31 01:13:28;;;;;;;15.48;8.00;;;11.30;99.90;;;;;;4985792;28;19922;-73
2022/10/31 01:15:55;;;;;;;;;;;11.40;99.90;;;;;;4991886;28;20103;-73
2022/10/31 01:18:20;;;;;;;12.82;7.80;;;11.30;99.90;;;;;;4991449;28;19930;-73
2022/10/31 01:20:46;;;;;;;18.73;8.00;;;11.40;99.90;;;;;;4989081;28;20118;-73
2022/10/31 01:23:11;;;;;;;;;;;11.20;99.90;;;;;;4996716;28;20038;-73
2022/10/31 01:25:37;;;;;;;16.35;8.13;;;11.20;99.90;;;;;;4989802;28;19921;-73
2022/10/31 01:28:03;;;;;;;;;;;11.20;99.90;;;;;;4989698;28;20054;-73
2022/10/31 01:30:28;;;;;;;14.60;7.38;;;11.20;99.90;;;;;;4990917;28;20290;-73
2022/10/31 01:32:54;;;;;;;12.82;7.60;;;11.20;99.90;;;;;;4990336;28;20126;-72
2022/10/31 01:35:19;;;;;;;;;;;11.30;99.90;;;;;;4990809;28;20074;-73
2022/10/31 01:37:45;;;;;;;14.77;7.50;;;11.20;99.90;;;;;;4990180;28;19944;-72
2022/10/31 01:40:11;;;;;;;;;;;11.20;99.90;;;;;;4991744;28;20034;-72
2022/10/31 01:42:36;;;;;;;13.20;7.38;;;11.20;99.90;;;;;;4990810;28;19926;-73
2022/10/31 01:45:02;;;;;;;;;;;11.20;99.90;;;;;;4996923;28;20046;-72
2022/10/31 01:47:37;;;;;;;14.05;7.60;;;11.10;99.90;;;;;;4989576;28;19921;-73
2022/10/31 01:50:11;;;;;;;12.82;7.63;;;11.00;99.90;;;;;;4990338;28;20092;-72
2022/10/31 01:52:44;;;;;;;13.30;8.52;;;10.90;99.90;;;;;;4990228;28;20104;-73
2022/10/31 01:55:17;;;;;;;19.85;8.88;;;10.90;99.90;;;;;;4990547;28;20072;-73
2022/10/31 01:57:47;;;;;;;15.40;8.18;;;11.00;99.90;;;;;;5013237;28;20047;-72
2022/10/31 02:00:14;;;;;;;17.90;9.10;;;10.90;99.90;;;;;;4991940;28;20062;-72
2022/10/31 02:02:40;;;;;;;17.25;8.90;;;10.90;99.90;;;;;;4992007;28;20444;-72
2022/10/31 02:05:07;;;;;;;;;;;10.90;99.90;;;;;;4991566;28;20043;-73
2022/10/31 02:07:55;;;;;;;13.55;8.48;;;10.80;99.90;;;;;;4988871;28;19921;-73
2022/10/31 02:10:22;;;;;;;15.63;8.85;;;10.70;99.90;;;;;;4987257;28;20054;-73
2022/10/31 02:12:52;;;;;;;15.50;8.98;;;10.70;99.90;;;;;;4986025;28;20105;-73
2022/10/31 02:15:18;;;;;;;16.25;9.02;;;10.70;99.90;;;;;;4986657;28;20047;-72
2022/10/31 02:17:43;;;;;;;;;;;11.50;99.90;;;;;;4990328;28;20038;-73
2022/10/31 02:20:23;;;;;;;17.05;10.52;;;10.60;99.90;;;;;;4990516;28;19994;-72
2022/10/31 02:23:14;;;;;;;17.13;10.23;;;10.60;99.90;;;;;;4988131;28;20038;-73
2022/10/31 02:26:07;;;;;;;20.88;10.60;;;10.70;99.90;;;;;;4987070;28;20043;-73
2022/10/31 02:28:45;;;;;;;19.23;10.50;;;10.70;99.90;;;;;;4987852;28;20042;-74
2022/10/31 02:31:38;;;;;;;20.92;10.70;;;10.80;99.90;;;;;;4991009;28;20393;-72
2022/10/31 02:34:48;;;;;;;19.38;11.57;;;10.80;99.90;;;;;;4988843;28;20392;-73
2022/10/31 02:37:24;;;;;;;19.10;11.68;;;10.80;99.90;;;;;;4956214;28;20046;-72
2022/10/31 02:40:05;;;;;;;18.50;11.32;;;10.80;99.90;;;;;;5009547;28;20053;-72
2022/10/31 02:42:43;;;;;;;20.08;11.73;;;10.80;99.90;;;;;;4989699;28;20038;-73
2022/10/31 02:45:43;;;;;;;17.52;10.85;;;10.90;99.90;;;;;;4988583;28;20392;-73
2022/10/31 02:48:18;;;;;;;20.67;11.10;;;10.70;99.90;;;;;;4990219;28;20046;-73
2022/10/31 02:50:53;;;;;;;23.63;11.60;;;10.80;99.90;;;;;;4986668;28;20050;-73
2022/10/31 02:53:19;;;;;;;18.25;11.20;;;10.50;99.90;;;;;;4990161;28;20145;-73
2022/10/31 02:55:48;;;;;;;;;;;10.50;99.90;;;;;;4990401;28;20159;-73
2022/10/31 02:58:22;;;;;;;20.17;11.38;;;10.50;99.90;;;;;;4990262;28;19921;-73
2022/10/31 03:01:03;;;;;;;18.42;10.93;;;10.50;99.90;;;;;;4989425;28;20133;-73
2022/10/31 03:03:44;;;;;;;19.77;11.00;;;10.40;99.90;;;;;;5012791;28;20038;-74
2022/10/31 03:06:56;;;;;;;17.75;10.43;;;10.40;99.90;;;;;;4985527;28;20469;-74
2022/10/31 03:09:41;;;;;;;19.00;11.63;;;10.40;99.90;;;;;;5002224;28;20471;-73
2022/10/31 03:12:25;;;;;;;18.50;11.45;;;11.00;99.90;;;;;;4989940;28;20060;-73
2022/10/31 03:15:00;;;;;;;19.52;11.68;;;10.40;99.90;;;;;;4987226;28;20383;-73
2022/10/31 03:17:37;;;;;;;18.48;12.02;;;10.40;99.90;;;;;;4992173;28;20038;-73
2022/10/31 03:20:06;;;;;;;19.45;11.82;;;10.30;99.90;;;;;;4991818;28;20081;-73
2022/10/31 03:22:32;;;;;;;20.83;12.02;;;10.30;99.90;;;;;;4978406;28;20054;-73
2022/10/31 03:25:01;;;;;;;17.17;11.20;;;10.30;99.90;;;;;;4992007;28;20123;-74
2022/10/31 03:27:30;;;;;;;17.13;11.30;;;10.20;99.90;;;;;;4988538;28;20131;-74
2022/10/31 03:30:00;;;;;;;18.63;11.55;;;10.30;99.90;;;;;;4988156;28;20035;-74
2022/10/31 03:32:28;;;;;;;20.35;11.25;;;10.30;99.90;;;;;;4987893;28;20502;-74
2022/10/31 03:34:58;;;;;;;18.75;12.13;;;10.30;99.90;;;;;;4987828;28;20050;-74
2022/10/31 03:37:27;;;;;;;21.20;11.77;;;10.30;99.90;;;;;;4988028;28;20038;-73
2022/10/31 03:39:55;;;;;;;19.23;11.60;;;10.30;99.90;;;;;;4988268;28;20058;-74
2022/10/31 03:42:25;;;;;;;18.15;11.57;;;10.30;99.90;;;;;;4987106;28;20050;-74
2022/10/31 03:45:05;;;;;;;19.52;11.00;;;10.40;99.90;;;;;;4988092;28;20038;-74
2022/10/31 03:47:35;;;;;;;19.00;12.45;;;10.30;99.90;;;;;;4984955;28;20043;-74
2022/10/31 03:50:01;;;;;;;20.75;11.68;;;10.30;99.90;;;;;;4983796;28;20096;-74
2022/10/31 03:52:36;;;;;;;;;;;10.70;99.90;;;;;;4989184;28;20070;-74
2022/10/31 03:55:16;;;;;;;19.65;11.38;;;10.40;99.90;;;;;;4984102;28;19929;-74
2022/10/31 03:58:03;;;;;;;19.48;12.30;;;10.40;99.90;;;;;;5007840;28;20043;-74
2022/10/31 04:00:30;;;;;;;;;;;10.40;99.90;;;;;;4985558;28;20049;-74
2022/10/31 04:03:01;;;;;;;20.83;11.68;;;10.50;99.90;;;;;;4988444;28;20001;-74
2022/10/31 04:05:28;;;;;;;20.30;12.40;;;10.50;99.90;;;;;;4987935;28;20117;-74
2022/10/31 04:07:58;;;;;;;18.88;11.75;;;10.40;99.90;;;;;;4987784;28;20603;-74
2022/10/31 04:10:26;;;;;;;20.88;12.60;;;10.40;99.90;;;;;;4987954;28;20042;-73
2022/10/31 04:13:02;;;;;;;21.17;12.70;;;10.40;99.90;;;;;;4988475;28;20085;-74
2022/10/31 04:15:30;;;;;;;22.80;12.82;;;10.40;99.90;;;;;;4984787;28;20934;-74
2022/10/31 04:17:58;;;;;;;23.80;12.57;;;10.50;99.90;;;;;;4989346;28;20524;-75
2022/10/31 04:20:35;;;;;;;19.88;12.25;;;10.50;99.90;;;;;;4986981;28;20085;-73
2022/10/31 04:23:01;;;;;;;17.75;11.98;;;10.40;99.90;;;;;;4984734;28;20494;-73
2022/10/31 04:25:27;;;;;;;21.80;12.07;;;10.40;99.90;;;;;;4988792;28;20042;-73
2022/10/31 04:27:53;;;;;;;;;;;10.40;99.90;;;;;;4989566;28;20401;-73
2022/10/31 04:30:19;;;;;;;17.45;11.23;;;10.40;99.90;;;;;;4987962;28;20437;-73
2022/10/31 04:32:44;;;;;;;;;;;10.40;99.90;;;;;;4989140;28;20046;-73
2022/10/31 04:35:10;;;;;;;19.13;11.68;;;10.30;99.90;;;;;;4988696;28;19925;-73
2022/10/31 04:37:35;;;;;;;19.33;12.02;;;10.30;99.90;;;;;;4987882;28;20118;-73
2022/10/31 04:40:01;;;;;;;;;;;10.30;99.90;;;;;;5013446;28;20084;-73
2022/10/31 04:42:30;;;;;;;19.58;11.63;;;10.30;99.90;;;;;;4990098;28;19957;-73
2022/10/31 04:44:55;;;;;;;18.95;11.90;;;10.20;99.90;;;;;;4988017;28;20072;-73
2022/10/31 04:47:21;;;;;;;;;;;10.20;99.90;;;;;;4988851;28;20070;-73
2022/10/31 04:49:46;;;;;;;18.60;11.57;;;10.20;99.90;;;;;;4990952;28;19929;-73
2022/10/31 04:52:12;;;;;;;;;;;10.10;99.90;;;;;;4991337;28;20465;-73
2022/10/31 04:54:37;;;;;;;21.88;12.40;;;10.10;99.90;;;;;;4991576;28;20008;-73
2022/10/31 04:57:03;;;;;;;;;;;10.10;99.90;;;;;;4990843;28;20054;-73
2022/10/31 04:59:28;;;;;;;17.88;11.68;;;10.10;99.90;;;;;;4992228;28;20009;-73
2022/10/31 05:01:54;;;;;;;17.63;11.70;;;10.10;99.90;;;;;;4995036;28;20440;-73
2022/10/31 05:04:20;;;;;;;20.15;12.57;;;10.10;99.90;;;;;;4996348;28;20056;-73
2022/10/31 05:06:45;;;;;;;;;;;10.00;99.90;;;;;;4991444;28;20038;-74
2022/10/31 05:09:11;;;;;;;21.75;11.50;;;10.00;99.90;;;;;;4991776;28;19982;-73
2022/10/31 05:11:36;;;;;;;;;;;10.00;99.90;;;;;;4990331;28;20119;-74
2022/10/31 05:14:02;;;;;;;19.30;11.10;;;9.90;99.90;;;;;;4990748;28;19957;-74
2022/10/31 05:16:28;;;;;;;;;;;9.90;99.90;;;;;;4991637;28;20049;-73
2022/10/31 05:18:53;;;;;;;20.10;11.52;;;9.90;99.90;;;;;;4991635;28;19921;-74
2022/10/31 05:21:19;;;;;;;;;;;9.80;99.90;;;;;;4989341;28;20093;-73
2022/10/31 05:23:44;;;;;;;19.70;11.70;;;9.80;99.90;;;;;;4990488;28;19926;-74
2022/10/31 05:26:10;;;;;;;;;;;9.80;99.90;;;;;;4990894;28;20451;-73
2022/10/31 05:28:35;;;;;;;16.15;10.57;;;9.80;99.90;;;;;;4990586;28;19977;-73
2022/10/31 05:31:01;;;;;;;;;;;9.70;99.90;;;;;;4991905;28;20046;-73
2022/10/31 05:33:27;;;;;;;15.30;10.70;;;9.90;99.90;;;;;;4989907;28;19975;-73
2022/10/31 05:35:52;;;;;;;16.83;10.85;;;9.60;99.90;;;;;;4989974;28;20677;-73
2022/10/31 05:38:18;;;;;;;;;;;9.50;99.90;;;;;;4991303;28;20462;-74
2022/10/31 05:40:44;;;;;;;18.00;11.02;;;9.50;99.90;;;;;;4989497;28;20317;-73
2022/10/31 05:43:09;;;;;;;21.58;11.23;;;9.50;99.90;;;;;;4990952;28;20042;-72
2022/10/31 05:45:35;;;;;;;17.63;10.88;;;9.50;99.90;;;;;;4990599;28;20050;-73
2022/10/31 05:48:01;;;;;;;;;;;9.50;99.90;;;;;;4992963;28;20111;-74
2022/10/31 05:50:29;;;;;;;17.08;10.82;;;9.50;99.90;;;;;;4989528;28;19921;-73
2022/10/31 05:53:00;;;;;;;19.92;10.95;;;9.50;99.90;;;;;;4989368;28;20046;-78
2022/10/31 05:55:27;;;;;;;17.10;10.80;;;9.50;99.90;;;;;;4988688;28;20052;-75
2022/10/31 05:57:54;;;;;;;15.55;10.32;;;9.50;99.90;;;;;;4989698;28;20070;-75
2022/10/31 06:00:20;;;;;;;17.63;10.90;;;9.60;99.90;;;;;;4990020;28;20046;-76
2022/10/31 06:02:45;;;;;;;17.20;10.85;;;9.50;99.90;;;;;;4994204;28;20034;-73
2022/10/31 06:05:14;;;;;;;;;;;9.50;99.90;;;;;;4990837;28;20031;-81
2022/10/31 06:07:40;;;;;;;15.82;10.98;;;9.40;99.90;;;;;;4987184;28;20020;-74
2022/10/31 06:10:08;;;;;;;16.90;11.23;;;9.40;99.90;;;;;;4988613;28;20094;-73
2022/10/31 06:12:37;;;;;;;20.25;11.23;;;9.40;99.90;;;;;;4990014;28;20510;-75
2022/10/31 06:15:07;;;;;;;17.55;11.48;;;9.40;99.90;;;;;;4985037;28;20052;-76
2022/10/31 06:17:36;;;;;;;16.20;11.30;;;9.40;99.90;;;;;;4988205;28;20035;-73
2022/10/31 06:20:03;;;;;;;18.60;11.65;;;9.40;99.90;;;;;;4989244;28;20046;-77
2022/10/31 06:22:29;;;;;;;19.10;11.40;;;9.30;99.90;;;;;;4989168;28;20042;-78
2022/10/31 06:24:54;;;;;;;;;;;9.30;99.90;;;;;;4988973;28;20050;-77
2022/10/31 06:27:20;;;;;;;18.10;11.90;;;9.30;99.90;;;;;;4990053;28;19921;-76
2022/10/31 06:29:46;;;;;;;;;;;9.60;99.90;;;;;;4989813;28;20046;-85
2022/10/31 06:32:12;;;;;;;16.65;11.70;;;9.30;99.90;;;;;;4990707;28;20000;-80
2022/10/31 06:34:38;;;;;;;19.85;12.00;;;9.30;99.90;;;;;;4986908;28;20512;-80
2022/10/31 06:37:06;;;;;;;19.75;12.35;;;9.30;99.90;;;;;;4988109;28;20053;-80
2022/10/31 06:39:32;;;;;;;17.88;12.85;;;9.30;99.90;;;;;;4990014;28;20034;-79
2022/10/31 06:41:58;;;;;;;;;;;9.50;99.90;;;;;;4988858;28;20378;-79
2022/10/31 06:44:23;;;;;;;19.08;12.38;;;9.40;99.90;;;;;;4988943;28;19983;-78
2022/10/31 06:46:55;;;;;;;;;;;9.30;99.90;;;;;;4987618;28;20074;-78
2022/10/31 06:49:24;;;;;;;19.92;13.23;;;9.40;99.90;;;;;;4992790;28;19928;-78
2022/10/31 06:51:50;;;;;;;18.88;12.82;;;9.40;99.90;;;;;;4988162;28;20122;-79
2022/10/31 06:54:16;;;;;;;20.77;12.52;;;9.40;99.90;;;;;;4989415;28;20128;-81
2022/10/31 06:56:48;;;;;;;21.85;13.52;;;9.40;99.90;;;;;;4993349;28;20046;-79
2022/10/31 06:59:14;;;;;;;20.98;12.90;;;9.40;99.90;;;;;;4998663;28;20414;-79
2022/10/31 07:01:40;;;;;;;19.05;12.45;;;9.40;99.90;;;;;;4999182;28;20045;-79
2022/10/31 07:04:06;;;;;;;;;;;9.40;99.90;;;;;;5002142;28;20117;-80
2022/10/31 07:06:31;;;;;;;19.90;12.65;;;9.40;99.90;;;;;;4997068;28;19965;-79
2022/10/31 07:08:59;;;;;;;;;;;9.40;99.90;;;;;;4996652;28;20125;-79
2022/10/31 07:11:25;;;;;;;18.88;12.80;;;9.40;99.90;;;;;;4992470;28;20285;-79
2022/10/31 07:13:51;;;;;;;;;;;9.50;99.90;;;;;;4990883;28;20050;-79
2022/10/31 07:16:16;;;;;;;18.77;12.88;;;9.50;99.90;;;;;;4992573;28;19926;-79
2022/10/31 07:18:42;;;;;;;;;;;9.50;99.90;;;;;;5015901;28;20048;-80
2022/10/31 07:21:07;;;;;;;22.58;13.82;;;9.60;99.90;;;;;;4995326;28;19944;-80
2022/10/31 07:23:33;;;;;;;20.27;13.95;;;9.70;99.90;;;;;;4997201;28;20087;-80
2022/10/31 07:25:59;;;;;;;;;;;9.80;99.90;;;;;;4993452;28;20099;-79
2022/10/31 07:28:29;;;;;;;19.90;14.20;;;9.80;99.90;;;;;;4989614;28;19922;-80
2022/10/31 07:30:59;;;;;;;22.65;14.25;;;9.90;99.90;;;;;;4986995;28;20046;-81
2022/10/31 07:33:28;;;;;;;21.98;13.95;;;10.00;99.90;;;;;;4988289;28;20111;-80
2022/10/31 07:35:53;;;;;;;;;;;10.00;99.90;;;;;;4991093;28;20454;-80
2022/10/31 07:38:22;;;;;;;20.63;13.50;;;10.00;99.90;;;;;;4989948;28;19948;-81
2022/10/31 07:40:52;;;;;;;20.45;13.40;;;10.00;99.90;;;;;;4989403;28;20107;-80
2022/10/31 07:43:22;;;;;;;18.25;13.65;;;10.10;99.90;;;;;;4990277;28;20109;-79
2022/10/31 07:45:55;;;;;;;21.33;14.00;;;10.20;99.90;;;;;;4989658;28;20143;-79
2022/10/31 07:48:21;;;;;;;21.92;14.82;;;10.20;99.90;;;;;;4989317;28;20069;-80
2022/10/31 07:50:47;;;;;;;21.92;14.70;;;10.30;99.90;;;;;;4989489;28;20053;-80
2022/10/31 07:53:13;;;;;;;;;;;10.30;99.90;;;;;;4989021;28;20043;-80
2022/10/31 07:55:42;;;;;;;22.08;14.88;;;10.30;99.90;;;;;;4987559;28;19922;-80
2022/10/31 07:58:13;;;;;;;23.52;17.27;;;10.60;99.90;;;;;;4989766;28;20509;-79
2022/10/31 08:00:40;;;;;;;29.35;17.92;;;11.40;99.90;;;;;;4989235;28;20042;-79
2022/10/31 08:03:14;;;;;;;22.95;16.17;;;12.00;99.90;;;;;;4987437;28;20051;-79
2022/10/31 08:05:40;;;;;;;25.83;15.65;;;12.80;99.90;;;;;;4991272;28;20064;-79
2022/10/31 08:08:09;;;;;;;23.20;15.68;;;13.20;99.90;;;;;;4987430;28;20146;-79
2022/10/31 08:10:36;;;;;;;19.50;14.40;;;13.50;99.90;;;;;;4987516;28;20133;-75
2022/10/31 08:13:10;;;;;;;24.70;14.93;;;13.90;99.90;;;;;;4987647;28;20138;-77
2022/10/31 08:15:38;;;;;;;18.40;13.98;;;14.70;99.90;;;;;;4986682;28;20050;-78
2022/10/31 08:18:06;;;;;;;18.63;12.90;;;15.40;99.90;;;;;;4988135;28;20058;-77
2022/10/31 08:20:31;;;;;;;16.95;12.10;;;16.00;99.90;;;;;;4987283;28;20046;-78
2022/10/31 08:23:02;;;;;;;15.52;11.25;;;16.70;99.90;;;;;;4989810;28;20046;-81
2022/10/31 08:25:32;;;;;;;16.40;10.57;;;17.30;99.90;;;;;;4991796;28;20034;-78
2022/10/31 08:27:58;;;;;;;13.70;9.73;;;18.60;99.90;;;;;;4992195;28;20511;-79
2022/10/31 08:30:28;;;;;;;14.38;9.93;;;19.00;99.90;;;;;;4990583;28;20138;-77
2022/10/31 08:33:01;;;;;;;14.93;9.25;;;19.80;99.90;;;;;;4990889;28;20547;-78
2022/10/31 08:35:27;;;;;;;10.95;8.48;;;20.60;99.90;;;;;;4994035;28;20543;-77
2022/10/31 08:37:57;;;;;;;12.07;8.85;;;20.70;99.90;;;;;;4990076;28;20072;-79
2022/10/31 08:40:27;;;;;;;10.20;7.78;;;20.90;99.90;;;;;;4991041;28;20135;-76
2022/10/31 08:43:00;;;;;;;11.25;7.90;;;21.30;99.90;;;;;;4988745;28;20506;-77
2022/10/31 08:45:26;;;;;;;11.30;8.32;;;21.80;99.90;;;;;;4989900;28;20130;-78
2022/10/31 08:47:52;;;;;;;11.13;7.93;;;22.50;99.90;;;;;;4990988;28;20074;-79
2022/10/31 08:50:18;;;;;;;9.07;7.00;;;22.90;99.90;;;;;;4989928;28;20074;-78
2022/10/31 08:52:43;;;;;;;9.07;7.28;;;23.30;99.90;;;;;;4991775;28;20042;-78
2022/10/31 08:55:10;;;;;;;9.93;7.35;;;23.30;99.90;;;;;;4992472;28;20038;-78
2022/10/31 08:57:36;;;;;;;12.00;7.20;;;23.70;99.20;;;;;;4989262;28;20087;-80
2022/10/31 09:00:02;;;;;;;9.90;7.40;;;23.70;98.60;;;;;;4994614;28;20042;-80
2022/10/31 09:02:28;;;;;;;9.63;7.72;;;23.70;99.90;;;;;;4991854;28;20121;-80
2022/10/31 09:04:53;;;;;;;13.30;7.72;;;24.00;97.80;;;;;;4991115;28;20117;-81
2022/10/31 09:07:19;;;;;;;11.05;7.60;;;24.00;97.50;;;;;;4990528;28;20036;-81
2022/10/31 09:09:45;;;;;;;11.38;7.95;;;23.90;98.10;;;;;;4994106;28;20496;-79
2022/10/31 09:12:13;;;;;;;8.73;7.25;;;24.20;97.20;;;;;;5014327;28;20089;-78
2022/10/31 09:14:41;;;;;;;8.77;7.30;;;24.30;97.80;;;;;;4986146;28;20085;-79
2022/10/31 09:17:07;;;;;;;9.93;7.28;;;24.60;96.80;;;;;;4987875;28;20042;-78
2022/10/31 09:19:32;;;;;;;9.35;7.13;;;24.70;96.60;;;;;;4997397;28;20129;-78
2022/10/31 09:21:58;;;;;;;9.82;6.95;;;24.50;97.90;;;;;;4990243;28;20133;-77
2022/10/31 09:24:24;;;;;;;9.80;7.22;;;25.00;97.20;;;;;;4991054;28;20038;-77
2022/10/31 09:26:49;;;;;;;9.18;7.00;;;25.70;95.40;;;;;;5016000;28;20100;-77
2022/10/31 09:29:15;;;;;;;7.75;6.25;;;25.70;96.10;;;;;;4997879;28;20088;-78
2022/10/31 09:31:40;;;;;;;9.43;6.20;;;26.00;95.20;;;;;;4990086;28;20454;-84
2022/10/31 09:34:06;;;;;;;9.75;6.70;;;25.90;94.90;;;;;;4990299;28;20034;-78
2022/10/31 09:36:32;;;;;;;9.38;6.32;;;25.90;94.40;;;;;;4991052;28;20046;-74
2022/10/31 09:38:57;;;;;;;7.35;5.43;;;25.80;94.60;;;;;;4991414;28;20082;-75
2022/10/31 09:41:31;;;;;;;8.40;5.63;;;25.90;94.70;;;;;;4989025;28;20049;-74
2022/10/31 09:44:14;;;;;;;9.32;6.28;;;26.30;94.00;;;;;;4992036;28;20108;-77
2022/10/31 09:47:12;;;;;;;8.68;5.55;;;25.90;95.10;;;;;;4987858;28;20042;-82
2022/10/31 09:50:11;;;;;;;7.05;5.25;;;26.00;94.40;;;;;;5009326;28;20158;-78
2022/10/31 09:52:40;;;;;;;9.10;5.25;;;26.20;94.80;;;;;;4987939;28;20046;-81
2022/10/31 09:55:19;;;;;;;8.73;6.00;;;26.60;93.70;;;;;;4989457;28;20042;-79
2022/10/31 09:57:45;;;;;;;7.22;5.50;;;26.50;93.70;;;;;;4990145;28;20038;-83
2022/10/31 10:00:20;;;;;;;8.95;5.95;;;26.30;93.60;;;;;;4992060;28;20038;-77
2022/10/31 10:02:48;;;;;;;7.20;5.20;;;25.90;93.80;;;;;;4988915;28;20057;-79
2022/10/31 10:05:20;;;;;;;8.02;5.88;;;25.90;95.20;;;;;;4992143;28;20050;-85
2022/10/31 10:08:08;;;;;;;8.68;5.78;;;26.20;94.80;;;;;;5011519;28;20107;-80
2022/10/31 10:11:16;;;;;;;8.88;5.25;;;25.90;94.10;;;;;;4991734;28;20136;-80
2022/10/31 10:13:59;;;;;;;7.55;5.88;;;24.80;93.90;;;;;;4987431;28;20057;-86
2022/10/31 10:16:48;;;;;;;9.45;6.13;;;24.30;95.30;;;;;;4988626;28;20034;-79
2022/10/31 10:19:23;;;;;;;8.38;6.28;;;24.50;95.60;;;;;;4987955;28;20097;-78
2022/10/31 10:21:53;;;;;;;10.30;6.50;;;24.10;95.70;;;;;;4988927;28;20105;-77
2022/10/31 10:24:41;;;;;;;10.23;7.13;;;23.50;95.50;;;;;;4991287;28;20053;-80
2022/10/31 10:27:25;;;;;;;10.70;7.30;;;22.90;96.70;;;;;;4988263;28;20083;-79
2022/10/31 10:30:02;;;;;;;11.82;7.82;;;23.00;97.90;;;;;;4989868;28;20051;-79
2022/10/31 10:32:31;;;;;;;10.80;6.47;;;23.40;97.00;;;;;;4985653;28;20111;-79
2022/10/31 10:35:11;;;;;;;9.32;6.90;;;23.40;96.30;;;;;;4987495;28;20121;-80
2022/10/31 10:37:42;;;;;;;10.50;7.25;;;22.70;96.60;;;;;;4987413;28;20069;-81
2022/10/31 10:40:16;;;;;;;10.82;7.60;;;21.90;97.70;;;;;;4990195;28;20505;-79
2022/10/31 10:48:53;;;;;;;10.38;7.68;;;21.40;99.70;;;;;;4990265;28;20496;-78
2022/10/31 10:51:27;;;;;;;12.18;7.82;;;22.40;98.30;;;;;;4986576;28;20042;-79
2022/10/31 10:54:26;;;;;;;10.32;7.78;;;22.30;97.90;;;;;;4990084;28;20058;-78
2022/10/31 10:57:11;;;;;;;10.88;8.25;;;22.20;98.30;;;;;;5016640;28;20080;-79
2022/10/31 10:59:37;;;;;;;12.43;8.15;;;22.10;98.50;;;;;;5018779;28;20494;-77
2022/10/31 11:02:15;;;;;;;11.10;7.47;;;22.70;98.30;;;;;;4994161;28;20038;-79
2022/10/31 11:04:42;;;;;;;10.82;6.88;;;23.30;98.10;;;;;;4990965;28;20506;-79
2022/10/31 11:07:10;;;;;;;10.93;6.95;;;24.20;96.50;;;;;;4990669;28;20057;-79
2022/10/31 11:09:37;;;;;;;10.32;7.47;;;24.50;96.20;;;;;;4990312;28;20392;-79
2022/10/31 11:12:27;;;;;;;9.52;6.88;;;25.10;96.30;;;;;;5014038;28;20062;-77
2022/10/31 11:14:59;;;;;;;11.20;7.43;;;25.50;95.50;;;;;;4986961;28;20050;-76
2022/10/31 11:17:38;;;;;;;8.93;6.82;;;25.70;94.90;;;;;;4989529;28;20046;-80
2022/10/31 11:20:13;;;;;;;12.60;8.18;;;25.40;94.90;;;;;;4991921;28;20073;-80
2022/10/31 11:22:44;;;;;;;9.25;6.63;;;25.30;95.40;;;;;;4988402;28;20100;-79
2022/10/31 11:25:19;;;;;;;10.98;6.70;;;25.90;95.40;;;;;;5013195;28;20515;-87
2022/10/31 11:27:44;;;;;;;10.20;7.30;;;26.80;94.50;;;;;;4990109;28;20390;-82
2022/10/31 11:30:13;;;;;;;8.68;6.05;;;26.90;93.70;;;;;;4996156;28;20042;-82
2022/10/31 11:32:52;;;;;;;7.10;5.38;;;27.10;93.40;;;;;;4988082;28;20141;-80
2022/10/31 11:35:19;;;;;;;8.23;4.82;;;27.10;93.20;;;;;;4984371;28;20057;-81
2022/10/31 11:37:47;;;;;;;6.90;4.55;;;27.20;93.10;;;;;;5005787;28;20038;-77
2022/10/31 11:40:21;;;;;;;7.85;5.50;;;27.40;92.90;;;;;;4983468;28;20050;-75
2022/10/31 11:42:49;;;;;;;6.35;4.43;;;27.40;93.50;;;;;;4989493;28;20041;-77
2022/10/31 11:45:28;;;;;;;8.10;5.10;;;27.60;93.20;;;;;;4992384;28;20046;-78
2022/10/31 11:48:00;;;;;;;6.53;4.82;;;27.40;92.60;;;;;;4988945;28;20047;-78
2022/10/31 11:50:36;;;;;;;7.63;5.10;;;27.90;92.80;;;;;;4988963;28;20419;-77
2022/10/31 11:53:03;;;;;;;6.40;4.32;;;27.00;92.20;;;;;;4987672;28;20103;-79
2022/10/31 11:55:37;;;;;;;9.25;4.22;;;26.30;92.90;;;;;;4988060;28;20039;-78
2022/10/31 11:58:07;;;;;;;6.25;4.32;;;25.90;93.50;;;;;;4986662;28;20436;-77
2022/10/31 12:00:40;;;;;;;7.68;5.00;;;25.60;93.50;;;;;;4993081;28;20039;-78
2022/10/31 12:03:27;;;;;;;7.45;4.55;;;25.10;93.90;;;;;;4992938;28;20078;-75
2022/10/31 12:06:18;;;;;;;8.80;5.30;;;25.00;93.80;;;;;;4990691;28;20053;-75
2022/10/31 12:08:46;;;;;;;6.75;5.15;;;25.20;93.80;;;;;;4988767;28;20495;-76
2022/10/31 12:11:29;;;;;;;7.72;5.25;;;25.00;94.30;;;;;;4992369;28;20490;-77
2022/10/31 12:14:08;;;;;;;7.57;5.13;;;25.20;93.70;;;;;;4987101;28;20058;-76
2022/10/31 12:16:52;;;;;;;8.15;5.57;;;24.70;93.80;;;;;;4992361;28;20042;-76
2022/10/31 12:19:38;;;;;;;9.05;5.88;;;23.90;94.50;;;;;;4989888;28;20045;-75
2022/10/31 12:22:34;;;;;;;8.90;6.22;;;23.50;95.10;;;;;;4991356;28;20050;-76
2022/10/31 12:25:33;;;;;;;11.95;7.00;;;23.60;94.80;;;;;;4991761;28;20084;-75
2022/10/31 12:28:12;;;;;;;14.10;7.38;;;23.50;95.30;;;;;;4990545;28;20401;-76
2022/10/31 12:31:06;;;;;;;10.27;6.78;;;23.70;95.10;;;;;;4988514;28;20052;-73
2022/10/31 12:33:53;;;;;;;11.80;7.80;;;23.60;95.00;;;;;;4986160;28;20042;-72
2022/10/31 12:36:18;;;;;;;;;;;23.10;95.00;;;;;;4982007;28;20498;-71
2022/10/31 12:39:15;;;;;;;12.17;7.97;;;22.60;95.80;;;;;;4992202;28;20022;-70
2022/10/31 12:41:55;;;;;;;11.95;8.18;;;22.20;96.50;;;;;;4988862;28;20054;-71
2022/10/31 12:44:50;;;;;;;14.18;7.72;;;22.00;96.90;;;;;;4991233;28;20085;-73
2022/10/31 12:47:53;;;;;;;10.70;7.85;;;21.70;97.10;;;;;;4990084;28;20042;-74
2022/10/31 12:50:58;;;;;;;14.02;8.30;;;21.40;97.80;;;;;;5038154;28;20046;-74
2022/10/31 12:53:43;;;;;;;12.23;7.68;;;21.60;98.20;;;;;;5014063;28;20054;-74
2022/10/31 12:56:30;;;;;;;11.60;7.43;;;21.60;97.90;;;;;;4989341;28;20034;-75
2022/10/31 12:59:04;;;;;;;12.23;7.57;;;21.70;98.00;;;;;;4993282;28;20059;-74
2022/10/31 13:01:34;;;;;;;12.55;7.93;;;21.70;98.30;;;;;;4987445;28;20398;-75
2022/10/31 13:04:14;;;;;;;11.48;7.47;;;21.40;98.50;;;;;;4986967;28;20089;-74
2022/10/31 13:06:50;;;;;;;11.27;7.50;;;20.90;98.60;;;;;;4988844;28;20474;-75
2022/10/31 13:09:20;;;;;;;11.63;7.22;;;20.40;99.60;;;;;;4989636;28;20119;-72
2022/10/31 13:11:58;;;;;;;10.52;6.78;;;20.10;99.70;;;;;;4990201;28;20434;-73
2022/10/31 13:14:34;;;;;;;8.70;6.15;;;19.80;99.90;;;;;;4990037;28;20042;-73
2022/10/31 13:17:01;;;;;;;12.25;5.72;;;19.70;99.90;;;;;;5011684;28;20502;-73